createdAt,value
2019-03-20T00:01:01.035Z,2.50
2019-03-20T00:03:29.944Z,2.30
2019-03-20T00:05:59.432Z,1.80
2019-03-20T00:08:28.519Z,2.50
2019-03-20T00:10:58.005Z,2.07
2019-03-20T00:13:27.563Z,2.40
2019-03-20T00:15:57.649Z,2.30
2019-03-20T00:18:27.729Z,2.20
2019-03-20T00:20:57.053Z,2.00
2019-03-20T00:23:26.893Z,1.80
2019-03-20T00:25:56.625Z,2.10
2019-03-20T00:28:25.993Z,1.87
2019-03-20T00:30:54.970Z,1.93
2019-03-20T00:33:23.696Z,3.23
2019-03-20T00:35:52.657Z,1.73
2019-03-20T00:38:21.949Z,2.30
2019-03-20T00:40:50.929Z,2.30
2019-03-20T00:43:19.971Z,2.10
2019-03-20T00:45:49.135Z,2.73
2019-03-20T00:48:19.124Z,1.80
2019-03-20T00:50:48.346Z,1.70
2019-03-20T00:53:18.185Z,1.90
2019-03-20T00:55:47.870Z,2.07
2019-03-20T00:58:17.536Z,1.80
2019-03-20T01:00:46.554Z,1.57
2019-03-20T01:03:16.001Z,1.90
2019-03-20T01:05:45.175Z,2.10
2019-03-20T01:08:14.162Z,1.80
2019-03-20T01:10:43.594Z,1.90
2019-03-20T01:13:12.969Z,1.77
2019-03-20T01:15:43.043Z,1.90
2019-03-20T01:18:12.022Z,2.67
2019-03-20T01:20:41.823Z,1.60
2019-03-20T01:23:10.961Z,1.80
2019-03-20T01:25:40.625Z,1.90
2019-03-20T01:28:09.744Z,2.23
2019-03-20T01:30:39.233Z,2.60
2019-03-20T01:33:08.616Z,1.80
2019-03-20T01:35:37.441Z,1.30
2019-03-20T01:38:06.361Z,2.20
2019-03-20T01:40:35.574Z,1.90
2019-03-20T01:43:04.809Z,1.90
2019-03-20T01:45:33.666Z,1.70
2019-03-20T01:48:02.667Z,2.13
2019-03-20T01:50:32.124Z,2.07
2019-03-20T01:53:01.777Z,2.53
2019-03-20T01:55:31.853Z,1.90
2019-03-20T01:58:00.796Z,1.90
2019-03-20T02:00:29.966Z,2.10
2019-03-20T02:02:59.206Z,1.80
2019-03-20T02:05:35.855Z,2.00
2019-03-20T02:07:59.342Z,2.50
2019-03-20T02:10:28.208Z,2.07
2019-03-20T02:12:58.775Z,1.80
2019-03-20T02:15:38.029Z,2.03
2019-03-20T02:17:59.827Z,1.60
2019-03-20T02:20:28.857Z,1.70
2019-03-20T02:22:58.525Z,2.07
2019-03-20T02:25:27.678Z,1.80
2019-03-20T02:27:57.656Z,1.70
2019-03-20T02:30:26.773Z,1.80
2019-03-20T02:32:55.889Z,1.90
2019-03-20T02:35:25.335Z,1.60
2019-03-20T02:37:54.230Z,1.50
2019-03-20T02:40:23.705Z,1.80
2019-03-20T02:42:52.567Z,1.80
2019-03-20T02:45:21.481Z,2.10
2019-03-20T02:47:50.454Z,2.20
2019-03-20T02:50:19.494Z,1.70
2019-03-20T02:52:48.659Z,1.80
2019-03-20T02:55:17.445Z,1.77
2019-03-20T02:57:46.884Z,1.63
2019-03-20T03:00:16.904Z,2.30
2019-03-20T03:02:46.127Z,2.03
2019-03-20T03:05:16.696Z,1.90
2019-03-20T03:07:45.483Z,1.60
2019-03-20T03:10:14.750Z,1.80
2019-03-20T03:12:44.325Z,1.80
2019-03-20T03:15:13.642Z,1.37
2019-03-20T03:17:42.516Z,2.13
2019-03-20T03:20:12.431Z,1.90
2019-03-20T03:22:41.288Z,1.97
2019-03-20T03:25:10.577Z,1.80
2019-03-20T03:27:39.573Z,1.80
2019-03-20T03:30:09.042Z,1.97
2019-03-20T03:32:37.944Z,2.07
2019-03-20T03:35:07.620Z,2.57
2019-03-20T03:37:37.362Z,2.03
2019-03-20T03:40:06.371Z,1.77
2019-03-20T03:42:35.575Z,2.13
2019-03-20T03:45:04.721Z,2.70
2019-03-20T03:47:34.427Z,2.07
2019-03-20T03:50:04.166Z,1.87
2019-03-20T03:52:33.237Z,2.00
2019-03-20T03:55:02.636Z,1.70
2019-03-20T03:57:31.869Z,1.83
2019-03-20T04:00:01.360Z,1.70
2019-03-20T04:02:30.460Z,1.57
2019-03-20T04:04:59.393Z,1.70
2019-03-20T04:07:28.463Z,1.63
2019-03-20T04:09:57.693Z,2.17
2019-03-20T04:12:28.023Z,1.90
2019-03-20T04:14:56.894Z,2.47
2019-03-20T04:17:26.953Z,2.10
2019-03-20T04:19:56.082Z,1.90
2019-03-20T04:22:25.551Z,1.90
2019-03-20T04:24:55.158Z,2.70
2019-03-20T04:27:24.655Z,2.20
2019-03-20T04:29:54.623Z,2.13
2019-03-20T04:32:23.487Z,2.20
2019-03-20T04:34:52.973Z,2.53
2019-03-20T04:37:22.367Z,1.90
2019-03-20T04:39:51.881Z,2.30
2019-03-20T04:42:21.257Z,2.40
2019-03-20T04:44:51.094Z,2.97
2019-03-20T04:47:20.702Z,2.07
2019-03-20T04:49:49.638Z,2.00
2019-03-20T04:52:18.999Z,2.13
2019-03-20T04:54:48.992Z,2.60
2019-03-20T04:57:18.494Z,2.37
2019-03-20T04:59:48.126Z,2.50
2019-03-20T05:02:18.040Z,2.50
2019-03-20T05:04:46.947Z,2.40
2019-03-20T05:07:16.632Z,2.55
2019-03-20T05:09:45.445Z,2.20
2019-03-20T05:12:14.262Z,1.87
2019-03-20T05:14:43.118Z,2.40
2019-03-20T05:17:12.486Z,2.43
2019-03-20T05:19:41.517Z,2.37
2019-03-20T05:22:10.463Z,1.87
2019-03-20T05:24:39.522Z,2.10
2019-03-20T05:27:08.767Z,2.20
2019-03-20T05:29:38.025Z,2.40
2019-03-20T05:32:06.854Z,2.20
2019-03-20T05:34:35.767Z,2.00
2019-03-20T05:37:10.283Z,2.33
2019-03-20T05:39:36.009Z,2.33
2019-03-20T05:42:05.313Z,2.00
2019-03-20T05:44:34.608Z,1.90
2019-03-20T05:47:04.501Z,1.87
2019-03-20T05:49:33.769Z,2.23
2019-03-20T05:52:02.683Z,2.33
2019-03-20T05:54:32.117Z,2.33
2019-03-20T05:57:01.165Z,2.70
2019-03-20T05:59:30.717Z,2.13
2019-03-20T06:01:59.565Z,2.70
2019-03-20T06:04:28.588Z,2.20
2019-03-20T06:06:57.557Z,2.20
2019-03-20T06:09:26.996Z,1.90
2019-03-20T06:11:56.606Z,2.50
2019-03-20T06:14:26.159Z,2.43
2019-03-20T06:16:55.117Z,2.47
2019-03-20T06:19:24.371Z,2.47
2019-03-20T06:21:53.196Z,2.37
2019-03-20T06:24:21.838Z,2.40
2019-03-20T06:26:51.625Z,2.23
2019-03-20T06:29:20.305Z,1.77
2019-03-20T06:31:49.133Z,2.10
2019-03-20T06:34:18.148Z,2.60
2019-03-20T06:36:46.721Z,2.30
2019-03-20T06:39:15.265Z,2.23
2019-03-20T06:41:43.853Z,2.27
2019-03-20T06:44:12.601Z,2.13
2019-03-20T06:46:41.494Z,2.80
2019-03-20T06:49:09.841Z,2.63
2019-03-20T06:51:38.241Z,2.60
2019-03-20T06:54:08.091Z,2.20
2019-03-20T06:56:36.525Z,2.50
2019-03-20T06:59:24.359Z,2.57
2019-03-20T07:01:52.924Z,2.47
2019-03-20T07:04:27.433Z,2.17
2019-03-20T07:07:18.372Z,2.40
2019-03-20T07:10:17.322Z,2.90
2019-03-20T07:12:45.736Z,2.27
2019-03-20T07:15:14.478Z,2.60
2019-03-20T07:17:43.528Z,2.20
2019-03-20T07:20:12.152Z,2.00
2019-03-20T07:22:40.741Z,2.53
2019-03-20T07:25:09.278Z,1.77
2019-03-20T07:27:37.545Z,1.90
2019-03-20T07:30:06.797Z,1.43
2019-03-20T07:32:35.252Z,1.87
2019-03-20T07:35:04.154Z,1.90
2019-03-20T07:37:33.705Z,1.70
2019-03-20T07:40:03.181Z,1.80
2019-03-20T07:42:31.944Z,2.00
2019-03-20T07:45:00.259Z,1.97
2019-03-20T07:47:28.564Z,1.90
2019-03-20T07:49:57.613Z,1.73
2019-03-20T07:52:26.410Z,1.67
2019-03-20T07:54:55.097Z,1.80
2019-03-20T07:57:24.038Z,2.30
2019-03-20T07:59:52.672Z,1.70
2019-03-20T08:02:21.026Z,1.73
2019-03-20T08:04:49.438Z,1.40
2019-03-20T08:07:18.108Z,1.40
2019-03-20T08:09:46.859Z,1.70
2019-03-20T08:12:15.847Z,2.10
2019-03-20T08:14:44.513Z,1.90
2019-03-20T08:17:13.237Z,1.70
2019-03-20T08:19:41.925Z,2.33
2019-03-20T08:22:10.589Z,2.70
2019-03-20T08:24:39.776Z,2.33
2019-03-20T08:27:08.723Z,3.10
2019-03-20T08:29:37.214Z,2.20
2019-03-20T08:32:06.146Z,2.40
2019-03-20T08:34:34.939Z,2.20
2019-03-20T08:37:03.938Z,2.70
2019-03-20T08:39:32.585Z,2.13
2019-03-20T08:42:01.612Z,2.73
2019-03-20T08:44:30.619Z,2.50
2019-03-20T08:46:59.109Z,3.27
2019-03-20T08:49:27.593Z,3.70
2019-03-20T08:51:56.505Z,3.33
2019-03-20T08:54:24.993Z,3.40
2019-03-20T08:56:53.669Z,3.80
2019-03-20T08:59:21.996Z,4.33
2019-03-20T09:01:50.425Z,4.40
2019-03-20T09:04:19.057Z,4.30
2019-03-20T09:06:47.474Z,4.27
2019-03-20T09:09:15.877Z,4.17
2019-03-20T09:11:44.225Z,4.20
2019-03-20T09:14:12.991Z,4.33
2019-03-20T09:16:41.415Z,4.37
2019-03-20T09:19:09.996Z,4.20
2019-03-20T09:21:38.937Z,4.33
2019-03-20T09:24:07.734Z,4.93
2019-03-20T09:26:36.350Z,5.60
2019-03-20T09:29:04.945Z,5.13
2019-03-20T09:31:33.598Z,5.87
2019-03-20T09:34:02.434Z,5.40
2019-03-20T09:36:42.341Z,5.57
2019-03-20T09:39:01.743Z,4.80
2019-03-20T09:41:32.530Z,4.70
2019-03-20T09:44:01.526Z,3.63
2019-03-20T09:46:30.552Z,3.83
2019-03-20T09:48:59.162Z,3.60
2019-03-20T09:51:28.793Z,3.67
2019-03-20T09:53:58.171Z,3.27
2019-03-20T09:56:27.864Z,3.70
2019-03-20T09:58:56.706Z,3.33
2019-03-20T10:01:25.424Z,3.13
2019-03-20T10:03:53.685Z,3.17
2019-03-20T10:06:22.597Z,2.90
2019-03-20T10:08:54.261Z,2.97
2019-03-20T10:11:24.741Z,3.00
2019-03-20T10:13:53.649Z,3.60
2019-03-20T10:16:22.489Z,2.73
2019-03-20T10:18:51.024Z,3.13
2019-03-20T10:21:23.175Z,2.77
2019-03-20T10:23:52.122Z,2.90
2019-03-20T10:26:20.597Z,2.93
2019-03-20T10:28:49.153Z,2.60
2019-03-20T10:31:17.865Z,2.80
2019-03-20T10:33:46.619Z,2.63
2019-03-20T10:36:15.541Z,2.20
2019-03-20T10:38:44.342Z,2.33
2019-03-20T10:41:15.737Z,2.53
2019-03-20T10:43:45.090Z,2.77
2019-03-20T10:46:14.938Z,2.40
2019-03-20T10:48:43.943Z,2.50
2019-03-20T10:51:12.586Z,2.13
2019-03-20T10:53:41.315Z,2.60
2019-03-20T10:56:09.928Z,2.10
2019-03-20T10:58:38.268Z,2.30
2019-03-20T11:01:06.961Z,2.27
2019-03-20T11:03:35.509Z,2.30
2019-03-20T11:06:04.149Z,2.43
2019-03-20T11:08:32.645Z,2.70
2019-03-20T11:11:01.203Z,2.10
2019-03-20T11:13:29.442Z,2.17
2019-03-20T11:15:57.909Z,2.33
2019-03-20T11:18:26.583Z,2.70
2019-03-20T11:20:55.029Z,2.60
2019-03-20T11:23:24.054Z,2.60
2019-03-20T11:25:52.740Z,2.43
2019-03-20T11:28:21.241Z,2.07
2019-03-20T11:30:50.067Z,2.20
2019-03-20T11:33:18.704Z,2.43
2019-03-20T11:35:47.745Z,2.60
2019-03-20T11:38:16.739Z,2.90
2019-03-20T11:40:46.113Z,3.23
2019-03-20T11:43:14.870Z,2.40
2019-03-20T11:45:43.884Z,2.70
2019-03-20T11:48:12.419Z,2.80
2019-03-20T11:50:41.070Z,2.50
2019-03-20T11:53:09.862Z,2.50
2019-03-20T11:55:38.554Z,2.60
2019-03-20T11:58:09.001Z,2.43
2019-03-20T12:00:37.747Z,2.20
2019-03-20T12:03:06.273Z,2.60
2019-03-20T12:05:35.335Z,2.40
2019-03-20T12:08:05.796Z,3.07
2019-03-20T12:10:34.936Z,3.23
2019-03-20T12:13:03.888Z,3.00
2019-03-20T12:15:32.194Z,2.80
2019-03-20T12:18:00.534Z,3.30
2019-03-20T12:20:28.880Z,2.27
2019-03-20T12:22:57.632Z,2.73
2019-03-20T12:25:27.017Z,2.43
2019-03-20T12:27:57.007Z,2.80
2019-03-20T12:30:26.474Z,1.90
2019-03-20T12:32:55.244Z,2.73
2019-03-20T12:35:24.561Z,2.40
2019-03-20T12:37:53.135Z,2.60
2019-03-20T12:40:22.435Z,2.50
2019-03-20T12:42:51.522Z,2.80
2019-03-20T12:45:20.945Z,2.33
2019-03-20T12:47:50.099Z,2.50
2019-03-20T12:50:19.018Z,2.73
2019-03-20T12:52:47.512Z,2.30
2019-03-20T12:55:16.221Z,2.20
2019-03-20T12:57:45.045Z,2.10
2019-03-20T13:00:16.181Z,2.20
2019-03-20T13:02:45.281Z,1.93
2019-03-20T13:05:14.196Z,2.50
2019-03-20T13:07:43.165Z,2.60
2019-03-20T13:10:13.811Z,2.10
2019-03-20T13:12:43.083Z,2.00
2019-03-20T13:15:13.145Z,2.70
2019-03-20T13:17:42.440Z,2.60
2019-03-20T13:20:11.310Z,2.80
2019-03-20T13:22:40.201Z,2.60
2019-03-20T13:25:09.081Z,2.53
2019-03-20T13:27:37.976Z,2.30
2019-03-20T13:30:19.729Z,2.50
2019-03-20T13:32:40.206Z,2.50
2019-03-20T13:35:08.959Z,2.50
2019-03-20T13:37:38.851Z,2.20
2019-03-20T13:40:14.287Z,2.20
2019-03-20T13:42:39.491Z,2.80
2019-03-20T13:45:09.756Z,2.23
2019-03-20T13:47:38.495Z,2.50
2019-03-20T13:50:08.138Z,2.07
2019-03-20T13:52:36.994Z,2.20
2019-03-20T13:55:05.929Z,2.00
2019-03-20T13:57:34.503Z,2.67
2019-03-20T14:00:04.748Z,2.33
2019-03-20T14:02:34.331Z,2.53
2019-03-20T14:05:04.608Z,2.60
2019-03-20T14:07:33.855Z,2.30
2019-03-20T14:10:02.758Z,2.77
2019-03-20T14:12:33.331Z,2.40
2019-03-20T14:15:01.755Z,1.83
2019-03-20T14:17:32.284Z,2.20
2019-03-20T14:20:01.958Z,3.10
2019-03-20T14:22:31.805Z,3.03
2019-03-20T14:25:00.585Z,2.90
2019-03-20T14:27:29.201Z,2.23
2019-03-20T14:29:57.952Z,2.87
2019-03-20T14:32:26.549Z,2.50
2019-03-20T14:34:55.246Z,2.40
2019-03-20T14:37:24.049Z,2.30
2019-03-20T14:39:52.631Z,2.50
2019-03-20T14:42:21.516Z,2.80
2019-03-20T14:44:51.770Z,2.70
2019-03-20T14:47:20.537Z,6.80
2019-03-20T14:49:49.488Z,6.30
2019-03-20T14:52:17.809Z,2.37
2019-03-20T14:54:46.871Z,3.57
2019-03-20T14:57:17.936Z,1.93
2019-03-20T14:59:46.570Z,2.40
2019-03-20T15:02:15.272Z,3.27
2019-03-20T15:04:43.697Z,2.10
2019-03-20T15:07:12.246Z,2.17
2019-03-20T15:09:42.636Z,1.93
2019-03-20T15:12:11.613Z,2.43
2019-03-20T15:14:40.353Z,2.10
2019-03-20T15:17:08.966Z,2.07
2019-03-20T15:19:37.849Z,2.40
2019-03-20T15:22:06.504Z,2.40
2019-03-20T15:24:35.049Z,2.50
2019-03-20T15:27:03.981Z,2.30
2019-03-20T15:29:32.593Z,3.20
2019-03-20T15:32:01.053Z,2.70
2019-03-20T15:34:29.474Z,3.93
2019-03-20T15:36:58.430Z,3.43
2019-03-20T15:39:27.457Z,3.87
2019-03-20T15:41:56.674Z,3.83
2019-03-20T15:44:25.196Z,3.33
2019-03-20T15:46:53.677Z,3.10
2019-03-20T15:49:22.433Z,2.50
2019-03-20T15:51:51.172Z,2.90
2019-03-20T15:54:19.609Z,2.50
2019-03-20T15:56:48.602Z,2.77
2019-03-20T15:59:17.595Z,3.00
2019-03-20T16:01:48.850Z,3.40
2019-03-20T16:04:23.583Z,3.10
2019-03-20T16:06:54.711Z,2.70
2019-03-20T16:09:23.132Z,3.07
2019-03-20T16:11:51.940Z,2.57
2019-03-20T16:14:20.426Z,2.90
2019-03-20T16:16:49.069Z,3.70
2019-03-20T16:19:17.582Z,3.50
2019-03-20T16:21:46.064Z,3.70
2019-03-20T16:24:14.741Z,3.80
2019-03-20T16:26:43.149Z,3.83
2019-03-20T16:29:11.617Z,3.10
2019-03-20T16:31:39.965Z,3.37
2019-03-20T16:34:08.161Z,3.27
2019-03-20T16:36:37.098Z,3.33
2019-03-20T16:39:06.653Z,3.03
2019-03-20T16:41:35.085Z,2.83
2019-03-20T16:44:03.820Z,3.03
2019-03-20T16:46:32.525Z,4.20
2019-03-20T16:49:06.073Z,3.13
2019-03-20T16:51:34.697Z,3.20
2019-03-20T16:54:03.389Z,4.20
2019-03-20T16:56:31.830Z,3.07
2019-03-20T16:59:00.745Z,4.07
2019-03-20T17:01:29.486Z,3.77
2019-03-20T17:03:57.913Z,3.40
2019-03-20T17:06:26.100Z,4.03
2019-03-20T17:08:55.328Z,3.60
2019-03-20T17:11:34.401Z,4.50
2019-03-20T17:13:57.716Z,4.43
2019-03-20T17:16:26.236Z,4.17
2019-03-20T17:18:55.202Z,4.40
2019-03-20T17:21:24.091Z,4.07
2019-03-20T17:23:52.882Z,3.07
2019-03-20T17:26:21.571Z,4.00
2019-03-20T17:28:50.653Z,3.60
2019-03-20T17:31:19.196Z,3.90
2019-03-20T17:33:51.289Z,3.77
2019-03-20T17:36:20.537Z,3.37
2019-03-20T17:38:49.200Z,3.17
2019-03-20T17:41:17.929Z,3.90
2019-03-20T17:43:46.531Z,3.40
2019-03-20T17:46:14.995Z,3.37
2019-03-20T17:48:46.427Z,3.30
2019-03-20T17:51:14.893Z,3.70
2019-03-20T17:53:44.211Z,3.60
2019-03-20T17:56:13.173Z,3.97
2019-03-20T17:58:41.827Z,3.93
2019-03-20T18:01:10.193Z,4.60
2019-03-20T18:03:38.845Z,3.97
2019-03-20T18:06:07.609Z,5.42
2019-03-20T18:08:36.485Z,4.30
2019-03-20T18:11:05.169Z,5.33
2019-03-20T18:13:35.470Z,4.77
2019-03-20T18:16:04.241Z,3.90
2019-03-20T18:18:43.241Z,5.10
2019-03-20T18:21:12.009Z,4.00
2019-03-20T18:23:40.694Z,3.90
2019-03-20T18:26:09.689Z,4.00
2019-03-20T18:28:38.481Z,4.17
2019-03-20T18:31:06.905Z,4.07
2019-03-20T18:33:38.814Z,3.73
2019-03-20T18:36:07.258Z,4.23
2019-03-20T18:38:36.189Z,4.43
2019-03-20T18:41:05.073Z,4.67
2019-03-20T18:43:33.545Z,4.50
2019-03-20T18:46:01.835Z,4.43
2019-03-20T18:48:30.215Z,4.73
2019-03-20T18:50:58.690Z,4.83
2019-03-20T18:53:27.370Z,5.17
2019-03-20T18:55:56.102Z,6.00
2019-03-20T18:58:24.713Z,5.65
2019-03-20T19:00:53.385Z,5.53
2019-03-20T19:03:22.706Z,5.80
2019-03-20T19:05:53.101Z,5.50
2019-03-20T19:08:21.902Z,6.10
2019-03-20T19:10:50.627Z,5.90
2019-03-20T19:13:19.230Z,5.90
2019-03-20T19:15:48.012Z,6.83
2019-03-20T19:18:16.787Z,6.80
2019-03-20T19:20:46.558Z,7.47
2019-03-20T19:23:15.201Z,6.70
2019-03-20T19:25:43.646Z,6.60
2019-03-20T19:28:12.309Z,6.70
2019-03-20T19:30:41.298Z,7.28
2019-03-20T19:33:10.964Z,7.07
2019-03-20T19:35:39.567Z,6.87
2019-03-20T19:38:09.353Z,7.80
2019-03-20T19:40:49.737Z,7.47
2019-03-20T19:43:19.753Z,8.53
2019-03-20T19:45:48.141Z,7.60
2019-03-20T19:48:16.809Z,8.23
2019-03-20T19:50:45.298Z,7.23
2019-03-20T19:53:13.852Z,7.30
2019-03-20T19:55:42.661Z,6.90
2019-03-20T19:58:11.490Z,7.80
2019-03-20T20:00:40.274Z,8.07
2019-03-20T20:03:08.621Z,7.53
2019-03-20T20:05:37.314Z,7.67
2019-03-20T20:08:06.741Z,7.77
2019-03-20T20:10:36.611Z,7.40
2019-03-20T20:13:04.983Z,7.77
2019-03-20T20:15:34.025Z,7.47
2019-03-20T20:18:03.937Z,7.17
2019-03-20T20:20:32.527Z,7.90
2019-03-20T20:23:01.271Z,7.60
2019-03-20T20:25:30.342Z,6.90
2019-03-20T20:27:59.034Z,7.27
2019-03-20T20:30:28.023Z,6.33
2019-03-20T20:32:56.576Z,6.97
2019-03-20T20:35:25.093Z,7.13
2019-03-20T20:37:54.018Z,6.70
2019-03-20T20:40:25.107Z,6.70
2019-03-20T20:42:54.298Z,6.57
2019-03-20T20:45:22.910Z,5.63
2019-03-20T20:47:51.613Z,6.00
2019-03-20T20:50:20.489Z,7.37
2019-03-20T20:52:49.808Z,5.80
2019-03-20T20:55:22.568Z,5.47
2019-03-20T20:57:53.266Z,5.37
2019-03-20T21:00:22.001Z,5.90
2019-03-20T21:02:51.099Z,5.60
2019-03-20T21:05:19.930Z,5.50
2019-03-20T21:07:48.637Z,5.43
2019-03-20T21:10:17.474Z,5.00
2019-03-20T21:12:55.550Z,5.70
2019-03-20T21:15:35.018Z,6.67
2019-03-20T21:18:29.174Z,6.40
2019-03-20T21:20:59.140Z,5.97
2019-03-20T21:23:45.882Z,4.97
2019-03-20T21:26:15.279Z,4.70
2019-03-20T21:29:02.466Z,4.70
2019-03-20T21:31:34.747Z,4.30
2019-03-20T21:34:30.076Z,4.23
2019-03-20T21:37:16.973Z,4.27
2019-03-20T21:39:46.490Z,4.03
2019-03-20T21:42:38.591Z,4.73
2019-03-20T21:45:34.438Z,4.57
2019-03-20T21:48:03.794Z,5.00
2019-03-20T21:51:01.437Z,4.00
2019-03-20T21:53:55.269Z,5.53
2019-03-20T21:56:30.077Z,4.13
2019-03-20T21:59:02.765Z,4.30
2019-03-20T22:02:04.774Z,3.70
2019-03-20T22:04:34.016Z,3.20
2019-03-20T22:07:10.883Z,3.60
